createdAt,value
2023-05-03T00:01:06.828Z,99.50
2023-05-03T00:03:33.100Z,98.63
2023-05-03T00:06:11.975Z,98.66
2023-05-03T00:08:38.481Z,98.52
2023-05-03T00:11:04.317Z,98.53
2023-05-03T00:13:30.122Z,99.48
2023-05-03T00:15:55.904Z,99.62
2023-05-03T00:18:21.913Z,99.79
2023-05-03T00:20:47.744Z,100.00
2023-05-03T00:23:13.525Z,99.65
2023-05-03T00:25:39.701Z,99.37
2023-05-03T00:28:05.483Z,99.59
2023-05-03T00:30:31.335Z,99.98
2023-05-03T00:32:57.207Z,100.00
2023-05-03T00:35:23.139Z,100.00
2023-05-03T00:37:48.923Z,100.00
2023-05-03T00:40:17.845Z,100.00
2023-05-03T00:42:45.784Z,100.00
2023-05-03T00:45:11.660Z,100.00
2023-05-03T00:47:37.938Z,100.00
2023-05-03T00:50:05.239Z,99.15
2023-05-03T00:52:31.446Z,98.75
2023-05-03T00:54:57.432Z,98.23
2023-05-03T00:57:25.432Z,98.57
2023-05-03T00:59:52.186Z,97.17
2023-05-03T01:02:18.157Z,98.11
2023-05-03T01:04:44.711Z,97.68
2023-05-03T01:07:27.832Z,97.56
2023-05-03T01:10:11.604Z,98.72
2023-05-03T01:13:14.968Z,97.76
2023-05-03T01:16:16.413Z,97.61
2023-05-03T01:18:48.307Z,97.23
2023-05-03T01:21:17.772Z,96.21
2023-05-03T01:24:06.225Z,98.68
2023-05-03T01:26:32.761Z,99.16
2023-05-03T01:28:59.529Z,100.00
2023-05-03T01:31:38.705Z,99.96
2023-05-03T01:34:28.140Z,99.42
2023-05-03T01:36:58.008Z,99.71
2023-05-03T01:39:50.188Z,98.99
2023-05-03T01:42:18.664Z,98.64
2023-05-03T01:44:46.607Z,99.15
2023-05-03T01:47:14.350Z,100.00
2023-05-03T01:49:40.254Z,99.77
2023-05-03T01:52:06.164Z,100.00
2023-05-03T01:54:32.019Z,99.37
2023-05-03T01:56:57.819Z,99.28
2023-05-03T01:59:23.576Z,99.23
2023-05-03T02:01:49.383Z,99.02
2023-05-03T02:04:15.192Z,99.27
2023-05-03T02:06:41.038Z,100.00
2023-05-03T02:09:07.796Z,100.00
2023-05-03T02:11:33.565Z,100.00
2023-05-03T02:13:59.655Z,100.00
2023-05-03T02:16:26.099Z,100.00
2023-05-03T02:18:53.082Z,100.00
2023-05-03T02:21:18.944Z,100.00
2023-05-03T02:23:44.776Z,100.00
2023-05-03T02:26:10.606Z,100.00
2023-05-03T02:28:36.400Z,100.00
2023-05-03T02:31:02.283Z,100.00
2023-05-03T02:33:28.123Z,100.00
2023-05-03T02:35:53.965Z,100.00
2023-05-03T02:38:19.776Z,100.00
2023-05-03T02:40:45.558Z,100.00
2023-05-03T02:43:11.328Z,100.00
2023-05-03T02:45:37.446Z,100.00
2023-05-03T02:48:03.431Z,100.00
2023-05-03T02:50:29.439Z,100.00
2023-05-03T02:52:55.299Z,100.00
2023-05-03T02:55:22.111Z,100.00
2023-05-03T02:57:47.892Z,100.00
2023-05-03T03:00:15.070Z,100.00
2023-05-03T03:02:41.035Z,100.00
2023-05-03T03:05:08.341Z,100.00
2023-05-03T03:07:36.369Z,100.00
2023-05-03T03:10:02.518Z,100.00
2023-05-03T03:12:29.149Z,100.00
2023-05-03T03:14:54.963Z,100.00
2023-05-03T03:17:20.781Z,100.00
2023-05-03T03:19:46.560Z,100.00
2023-05-03T03:22:12.353Z,100.00
2023-05-03T03:24:38.888Z,100.00
2023-05-03T03:27:04.803Z,100.00
2023-05-03T03:29:32.354Z,100.00
2023-05-03T03:31:58.302Z,100.00
2023-05-03T03:34:24.372Z,100.00
2023-05-03T03:36:50.223Z,100.00
2023-05-03T03:39:16.193Z,100.00
2023-05-03T03:41:42.170Z,100.00
2023-05-03T03:44:08.210Z,100.00
2023-05-03T03:46:34.110Z,100.00
2023-05-03T03:49:00.056Z,100.00
2023-05-03T03:51:26.181Z,100.00
2023-05-03T03:53:52.291Z,100.00
2023-05-03T03:56:18.211Z,100.00
2023-05-03T03:58:44.117Z,100.00
2023-05-03T04:01:10.692Z,100.00
2023-05-03T04:03:36.617Z,100.00
2023-05-03T04:06:03.175Z,100.00
2023-05-03T04:08:29.000Z,100.00
2023-05-03T04:10:54.820Z,100.00
2023-05-03T04:13:20.683Z,100.00
2023-05-03T04:15:46.478Z,100.00
2023-05-03T04:18:12.342Z,100.00
2023-05-03T04:20:38.519Z,100.00
2023-05-03T04:23:04.397Z,100.00
2023-05-03T04:25:31.377Z,100.00
2023-05-03T04:27:58.080Z,100.00
2023-05-03T04:30:25.025Z,100.00
2023-05-03T04:32:53.503Z,100.00
2023-05-03T04:35:19.900Z,100.00
2023-05-03T04:37:46.049Z,100.00
2023-05-03T04:40:12.094Z,100.00
2023-05-03T04:42:38.379Z,100.00
2023-05-03T04:45:08.836Z,100.00
2023-05-03T04:47:35.341Z,100.00
2023-05-03T04:50:01.649Z,100.00
2023-05-03T04:52:27.704Z,100.00
2023-05-03T04:54:53.705Z,100.00
2023-05-03T04:57:20.914Z,100.00
2023-05-03T04:59:46.710Z,100.00
2023-05-03T05:02:12.523Z,100.00
2023-05-03T05:04:38.328Z,100.00
2023-05-03T05:07:04.091Z,100.00
2023-05-03T05:09:32.624Z,100.00
2023-05-03T05:11:58.484Z,100.00
2023-05-03T05:14:27.575Z,100.00
2023-05-03T05:16:53.461Z,100.00
2023-05-03T05:19:19.373Z,100.00
2023-05-03T05:21:45.193Z,100.00
2023-05-03T05:24:10.987Z,100.00
2023-05-03T05:26:36.978Z,100.00
2023-05-03T05:29:03.088Z,100.00
2023-05-03T05:31:29.022Z,100.00
2023-05-03T05:33:55.064Z,100.00
2023-05-03T05:36:21.027Z,100.00
2023-05-03T05:38:46.881Z,100.00
2023-05-03T05:41:12.697Z,100.00
2023-05-03T05:43:38.464Z,100.00
2023-05-03T05:46:04.392Z,100.00
2023-05-03T05:48:30.252Z,100.00
2023-05-03T05:50:56.059Z,100.00
2023-05-03T05:53:22.971Z,100.00
2023-05-03T05:55:48.749Z,100.00
2023-05-03T05:58:14.521Z,100.00
2023-05-03T06:00:40.381Z,100.00
2023-05-03T06:03:06.656Z,100.00
2023-05-03T06:05:32.568Z,100.00
2023-05-03T06:07:59.144Z,100.00
2023-05-03T06:10:25.462Z,100.00
2023-05-03T06:12:51.308Z,100.00
2023-05-03T06:15:17.177Z,100.00
2023-05-03T06:17:43.300Z,100.00
2023-05-03T06:20:12.128Z,100.00
2023-05-03T06:22:38.212Z,100.00
2023-05-03T06:25:05.029Z,100.00
2023-05-03T06:27:30.935Z,100.00
2023-05-03T06:29:56.758Z,100.00
2023-05-03T06:32:22.927Z,100.00
2023-05-03T06:34:49.417Z,100.00
2023-05-03T06:37:16.075Z,100.00
2023-05-03T06:39:41.978Z,100.00
2023-05-03T06:42:07.828Z,100.00
2023-05-03T06:44:33.624Z,99.93
2023-05-03T06:46:59.584Z,100.00
2023-05-03T06:49:25.468Z,100.00
2023-05-03T06:51:51.531Z,100.00
2023-05-03T06:54:21.574Z,99.41
2023-05-03T06:56:47.459Z,99.87
2023-05-03T06:59:13.313Z,98.26
2023-05-03T07:01:39.271Z,97.36
2023-05-03T07:04:05.261Z,97.04
2023-05-03T07:06:37.746Z,97.57
2023-05-03T07:09:10.420Z,96.13
2023-05-03T07:11:38.603Z,95.82
2023-05-03T07:14:06.524Z,96.27
2023-05-03T07:16:32.479Z,96.96
2023-05-03T07:18:58.332Z,95.02
2023-05-03T07:21:26.230Z,93.07
2023-05-03T07:23:52.000Z,91.78
2023-05-03T07:26:17.924Z,90.67
2023-05-03T07:28:43.803Z,91.65
2023-05-03T07:31:10.018Z,91.87
2023-05-03T07:33:36.676Z,90.06
2023-05-03T07:36:04.243Z,90.43
2023-05-03T07:38:30.176Z,90.43
2023-05-03T07:40:56.000Z,88.91
2023-05-03T07:43:22.972Z,87.98
2023-05-03T07:45:49.308Z,88.27
2023-05-03T07:48:15.289Z,88.11
2023-05-03T07:50:43.254Z,88.01
2023-05-03T07:53:09.257Z,87.27
2023-05-03T07:55:35.843Z,86.74
2023-05-03T07:58:02.947Z,85.81
2023-05-03T08:00:28.742Z,85.57
2023-05-03T08:02:54.891Z,83.78
2023-05-03T08:05:22.616Z,83.00
2023-05-03T08:07:49.458Z,81.68
2023-05-03T08:10:15.432Z,82.19
2023-05-03T08:12:41.380Z,83.60
2023-05-03T08:15:07.867Z,83.12
2023-05-03T08:17:43.966Z,83.86
2023-05-03T08:20:10.954Z,82.50
2023-05-03T08:22:38.071Z,82.13
2023-05-03T08:25:04.280Z,82.30
2023-05-03T08:27:30.984Z,81.19
2023-05-03T08:29:57.069Z,80.69
2023-05-03T08:32:24.351Z,81.21
2023-05-03T08:34:50.795Z,79.18
2023-05-03T08:37:16.750Z,80.62
2023-05-03T08:39:42.694Z,80.46
2023-05-03T08:42:08.725Z,79.66
2023-05-03T08:44:47.424Z,79.57
2023-05-03T08:47:15.619Z,77.52
2023-05-03T08:49:42.899Z,76.88
2023-05-03T08:52:13.982Z,77.80
2023-05-03T08:54:40.697Z,78.05
2023-05-03T08:57:12.956Z,77.90
2023-05-03T09:00:00.958Z,77.39
2023-05-03T09:02:27.737Z,79.17
2023-05-03T09:04:55.902Z,78.90
2023-05-03T09:07:22.009Z,78.65
2023-05-03T09:09:47.883Z,77.52
2023-05-03T09:12:33.745Z,76.65
2023-05-03T09:15:00.194Z,77.12
2023-05-03T09:17:26.351Z,76.26
2023-05-03T09:19:56.980Z,72.05
2023-05-03T09:22:28.185Z,70.71
2023-05-03T09:24:59.585Z,69.37
2023-05-03T09:27:26.746Z,72.41
2023-05-03T09:29:53.674Z,71.52
2023-05-03T09:32:22.149Z,72.13
2023-05-03T09:34:48.217Z,71.58
2023-05-03T09:37:14.218Z,71.72
2023-05-03T09:39:45.505Z,73.36
2023-05-03T09:42:21.322Z,71.77
2023-05-03T09:44:50.565Z,71.26
2023-05-03T09:47:17.986Z,71.22
2023-05-03T09:49:44.285Z,71.43
2023-05-03T09:52:10.699Z,70.90
2023-05-03T09:54:37.655Z,69.91
2023-05-03T09:57:07.675Z,69.78
2023-05-03T09:59:38.889Z,66.44
2023-05-03T10:02:08.178Z,66.21
2023-05-03T10:04:46.900Z,65.99
2023-05-03T10:07:19.524Z,64.82
2023-05-03T10:09:47.279Z,63.44
2023-05-03T10:12:16.705Z,61.65
2023-05-03T10:14:47.597Z,61.92
2023-05-03T10:17:35.276Z,60.21
2023-05-03T10:20:27.911Z,60.06
2023-05-03T10:23:05.825Z,57.80
2023-05-03T10:25:33.979Z,57.37
2023-05-03T10:28:04.350Z,56.32
2023-05-03T10:30:31.957Z,55.09
2023-05-03T10:32:59.631Z,56.42
2023-05-03T10:35:27.502Z,56.53
2023-05-03T10:37:56.139Z,55.11
2023-05-03T10:40:22.570Z,53.33
2023-05-03T10:42:54.206Z,53.74
2023-05-03T10:45:28.158Z,52.31
2023-05-03T10:48:12.229Z,52.74
2023-05-03T10:50:38.994Z,51.46
2023-05-03T10:53:05.108Z,51.29
2023-05-03T10:55:32.135Z,50.46
2023-05-03T10:57:58.852Z,48.01
2023-05-03T11:00:29.246Z,49.64
2023-05-03T11:03:08.708Z,49.63
2023-05-03T11:05:35.885Z,48.83
2023-05-03T11:08:11.123Z,47.21
2023-05-03T11:10:36.991Z,47.65
2023-05-03T11:13:02.799Z,46.38
2023-05-03T11:15:28.884Z,46.56
2023-05-03T11:17:55.385Z,45.87
2023-05-03T11:20:21.309Z,46.20
2023-05-03T11:22:47.500Z,46.59
2023-05-03T11:25:14.628Z,46.83
2023-05-03T11:27:41.536Z,45.76
2023-05-03T11:30:09.518Z,45.35
2023-05-03T11:32:36.183Z,42.90
2023-05-03T11:35:04.855Z,42.25
2023-05-03T11:37:31.657Z,43.00
2023-05-03T11:39:58.410Z,42.10
2023-05-03T11:42:25.388Z,42.48
2023-05-03T11:44:52.432Z,42.61
2023-05-03T11:47:18.536Z,41.13
2023-05-03T11:49:52.066Z,42.31
2023-05-03T11:52:26.696Z,42.08
2023-05-03T11:54:53.590Z,42.36
2023-05-03T11:57:21.067Z,42.39
2023-05-03T11:59:48.985Z,40.18
2023-05-03T12:02:15.535Z,40.90
2023-05-03T12:04:43.932Z,38.46
2023-05-03T12:07:11.686Z,40.46
2023-05-03T12:09:40.399Z,39.85
2023-05-03T12:12:10.079Z,42.32
2023-05-03T12:14:58.442Z,40.34
2023-05-03T12:17:42.586Z,39.48
2023-05-03T12:22:56.337Z,39.15
2023-05-03T12:25:26.448Z,39.58
2023-05-03T12:28:12.782Z,40.56
2023-05-03T12:30:40.677Z,38.30
2023-05-03T12:33:09.636Z,39.42
2023-05-03T12:35:39.080Z,40.48
2023-05-03T12:38:09.485Z,37.62
2023-05-03T12:40:36.232Z,39.04
2023-05-03T12:43:02.932Z,38.72
2023-05-03T12:45:33.790Z,39.15
2023-05-03T12:48:00.678Z,39.78
2023-05-03T12:50:30.920Z,39.89
2023-05-03T12:53:01.624Z,37.66
2023-05-03T12:55:33.595Z,39.03
2023-05-03T13:00:36.786Z,38.95
2023-05-03T13:05:36.219Z,38.09
2023-05-03T13:08:08.517Z,37.48
2023-05-03T13:10:36.842Z,37.30
2023-05-03T13:13:03.455Z,36.59
2023-05-03T13:15:30.085Z,36.96
2023-05-03T13:17:56.497Z,36.33
2023-05-03T13:20:22.699Z,37.01
2023-05-03T13:22:48.947Z,36.54
2023-05-03T13:25:15.016Z,36.74
2023-05-03T13:27:41.024Z,35.13
2023-05-03T13:30:07.960Z,34.74
2023-05-03T13:32:33.965Z,35.46
2023-05-03T13:34:59.955Z,36.17
2023-05-03T13:37:25.867Z,34.90
2023-05-03T13:39:51.718Z,35.78
2023-05-03T13:42:19.533Z,36.01
2023-05-03T13:44:48.208Z,36.42
2023-05-03T13:47:14.560Z,36.11
2023-05-03T13:49:40.817Z,37.10
2023-05-03T13:52:06.903Z,35.62
2023-05-03T13:54:32.879Z,35.41
2023-05-03T13:56:58.770Z,35.73
2023-05-03T13:59:24.788Z,34.85
2023-05-03T14:01:50.720Z,36.63
2023-05-03T14:04:16.812Z,37.50
2023-05-03T14:06:42.900Z,35.66
2023-05-03T14:09:09.094Z,37.70
2023-05-03T14:11:35.078Z,37.65
2023-05-03T14:14:01.093Z,37.79
2023-05-03T14:18:56.305Z,38.86
2023-05-03T14:21:22.264Z,37.73
2023-05-03T14:23:51.381Z,38.00
2023-05-03T14:26:18.838Z,39.42
2023-05-03T14:28:45.552Z,39.08
2023-05-03T14:31:12.463Z,40.52
2023-05-03T14:33:39.244Z,40.18
2023-05-03T14:36:08.800Z,37.81
2023-05-03T14:38:36.512Z,37.56
2023-05-03T14:41:02.862Z,39.68
2023-05-03T14:43:28.770Z,40.31
2023-05-03T14:45:54.731Z,40.97
2023-05-03T14:48:20.588Z,39.17
2023-05-03T14:50:50.483Z,38.39
2023-05-03T14:53:16.492Z,38.41
2023-05-03T14:55:42.833Z,38.46
2023-05-03T14:58:10.091Z,39.17
2023-05-03T15:00:40.275Z,38.02
2023-05-03T15:03:10.741Z,39.33
2023-05-03T15:05:46.903Z,39.84
2023-05-03T15:08:14.488Z,39.95
2023-05-03T15:10:41.437Z,40.88
2023-05-03T15:13:08.800Z,40.42
2023-05-03T15:15:35.294Z,41.35
2023-05-03T15:18:01.216Z,41.42
2023-05-03T15:20:27.074Z,40.92
2023-05-03T15:22:53.074Z,41.61
2023-05-03T15:25:18.979Z,41.33
2023-05-03T15:27:44.975Z,41.38
2023-05-03T15:30:14.512Z,40.56
2023-05-03T15:32:40.420Z,40.32
2023-05-03T15:35:06.554Z,40.67
2023-05-03T15:37:36.922Z,41.59
2023-05-03T15:40:04.772Z,40.93
2023-05-03T15:42:31.259Z,42.90
2023-05-03T15:44:57.412Z,43.08
2023-05-03T15:47:24.054Z,41.78
2023-05-03T15:49:50.041Z,41.92
2023-05-03T15:52:16.446Z,42.02
2023-05-03T15:54:42.346Z,41.80
2023-05-03T15:57:08.494Z,41.26
2023-05-03T15:59:34.391Z,41.32
2023-05-03T16:02:02.567Z,41.95
2023-05-03T16:04:28.594Z,44.00
2023-05-03T16:06:54.520Z,42.42
2023-05-03T16:09:21.055Z,43.11
2023-05-03T16:11:47.006Z,43.70
2023-05-03T16:14:13.260Z,43.48
2023-05-03T16:16:39.902Z,43.58
2023-05-03T16:19:07.998Z,43.04
2023-05-03T16:21:33.832Z,42.80
2023-05-03T16:23:59.808Z,42.72
2023-05-03T16:26:26.137Z,43.04
2023-05-03T16:28:52.020Z,43.22
2023-05-03T16:31:17.951Z,43.12
2023-05-03T16:33:43.867Z,42.84
2023-05-03T16:36:10.093Z,43.06
2023-05-03T16:38:36.364Z,42.26
2023-05-03T16:41:02.597Z,43.11
2023-05-03T16:43:29.063Z,42.64
2023-05-03T16:45:59.494Z,43.33
2023-05-03T16:48:29.575Z,43.30
2023-05-03T16:50:55.964Z,42.94
2023-05-03T16:53:22.503Z,43.58
2023-05-03T16:55:48.358Z,43.75
2023-05-03T16:58:14.779Z,43.54
2023-05-03T17:00:40.954Z,43.63
2023-05-03T17:03:07.586Z,43.44
2023-05-03T17:05:34.430Z,42.71
2023-05-03T17:08:01.395Z,43.86
2023-05-03T17:10:28.252Z,44.52
2023-05-03T17:13:01.259Z,44.17
2023-05-03T17:15:27.544Z,44.73
2023-05-03T17:17:53.593Z,46.12
2023-05-03T17:20:20.009Z,46.22
2023-05-03T17:22:45.903Z,45.61
2023-05-03T17:25:11.759Z,45.38
2023-05-03T17:27:37.655Z,46.20
2023-05-03T17:30:05.222Z,45.34
2023-05-03T17:32:31.553Z,46.65
2023-05-03T17:34:57.843Z,47.09
2023-05-03T17:37:24.442Z,47.48
2023-05-03T17:39:50.587Z,47.05
2023-05-03T17:42:16.505Z,47.52
2023-05-03T17:44:42.857Z,47.85
2023-05-03T17:47:10.263Z,47.27
2023-05-03T17:49:37.088Z,48.48
2023-05-03T17:52:03.955Z,48.92
2023-05-03T17:54:30.211Z,49.16
2023-05-03T17:56:56.338Z,49.91
2023-05-03T17:59:22.136Z,49.46
2023-05-03T18:01:48.221Z,50.87
2023-05-03T18:04:14.510Z,50.72
2023-05-03T18:06:40.591Z,50.80
2023-05-03T18:09:07.304Z,52.23
2023-05-03T18:11:33.277Z,51.55
2023-05-03T18:13:59.240Z,51.63
2023-05-03T18:16:25.430Z,51.63
2023-05-03T18:18:52.367Z,51.88
2023-05-03T18:21:18.444Z,52.75
2023-05-03T18:23:44.776Z,53.72
2023-05-03T18:26:10.601Z,54.50
2023-05-03T18:28:36.948Z,54.97
2023-05-03T18:31:03.507Z,54.83
2023-05-03T18:33:31.359Z,55.60
2023-05-03T18:35:58.128Z,56.55
2023-05-03T18:38:24.519Z,56.69
2023-05-03T18:40:51.048Z,57.08
2023-05-03T18:43:16.987Z,58.35
2023-05-03T18:45:43.458Z,58.75
2023-05-03T18:48:09.520Z,58.83
2023-05-03T18:50:37.591Z,59.29
2023-05-03T18:53:04.563Z,59.78
2023-05-03T18:55:30.615Z,59.82
2023-05-03T18:57:56.547Z,59.00
2023-05-03T19:00:22.497Z,58.99
2023-05-03T19:03:00.811Z,58.86
2023-05-03T19:05:26.968Z,59.87
2023-05-03T19:07:56.200Z,59.22
2023-05-03T19:10:22.112Z,59.68
2023-05-03T19:12:48.090Z,58.88
2023-05-03T19:15:14.217Z,58.38
2023-05-03T19:17:41.255Z,59.03
2023-05-03T19:20:09.425Z,60.64
2023-05-03T19:22:35.497Z,61.08
2023-05-03T19:25:04.115Z,61.32
2023-05-03T19:27:30.808Z,60.19
2023-05-03T19:29:57.277Z,61.20
2023-05-03T19:32:23.798Z,61.78
2023-05-03T19:34:49.781Z,61.79
2023-05-03T19:37:15.554Z,62.21
2023-05-03T19:39:41.489Z,62.78
2023-05-03T19:42:08.218Z,63.55
2023-05-03T19:44:34.113Z,63.72
2023-05-03T19:47:00.140Z,63.99
2023-05-03T19:49:26.112Z,64.80
2023-05-03T19:51:55.272Z,64.92
2023-05-03T19:54:22.261Z,65.34
2023-05-03T19:56:49.705Z,65.34
2023-05-03T19:59:15.605Z,65.55
2023-05-03T20:01:42.213Z,67.05
2023-05-03T20:04:08.236Z,67.11
2023-05-03T20:06:34.187Z,67.14
2023-05-03T20:09:00.012Z,67.76
2023-05-03T20:11:25.941Z,68.01
2023-05-03T20:13:51.860Z,68.46
2023-05-03T20:16:20.104Z,68.43
2023-05-03T20:18:47.438Z,68.73
2023-05-03T20:21:13.790Z,68.70
2023-05-03T20:23:39.621Z,69.04
2023-05-03T20:26:05.839Z,70.17
2023-05-03T20:28:36.324Z,70.05
2023-05-03T20:31:02.303Z,69.62
2023-05-03T20:33:28.345Z,70.06
2023-05-03T20:35:54.253Z,70.80
2023-05-03T20:38:20.324Z,71.43
2023-05-03T20:40:46.100Z,71.49
2023-05-03T20:43:12.613Z,72.37
2023-05-03T20:45:40.675Z,72.29
2023-05-03T20:48:11.542Z,72.14
2023-05-03T20:50:37.662Z,72.21
2023-05-03T20:53:03.509Z,72.64
2023-05-03T20:55:29.386Z,73.17
2023-05-03T20:57:56.114Z,72.69
2023-05-03T21:00:22.119Z,72.94
2023-05-03T21:02:52.869Z,73.61
2023-05-03T21:05:20.274Z,74.05
2023-05-03T21:07:46.663Z,74.68
2023-05-03T21:10:12.640Z,75.01
2023-05-03T21:12:38.562Z,74.13
2023-05-03T21:15:04.821Z,74.53
2023-05-03T21:17:30.651Z,75.61
2023-05-03T21:19:56.557Z,74.83
2023-05-03T21:22:22.401Z,75.56
2023-05-03T21:24:48.358Z,75.64
2023-05-03T21:27:14.266Z,74.47
2023-05-03T21:29:40.174Z,75.64
2023-05-03T21:32:06.309Z,74.96
2023-05-03T21:34:32.394Z,75.30
2023-05-03T21:36:58.298Z,74.73
2023-05-03T21:39:24.415Z,74.83
2023-05-03T21:41:50.698Z,75.62
2023-05-03T21:44:16.701Z,76.25
2023-05-03T21:46:42.535Z,76.69
2023-05-03T21:49:08.486Z,76.59
2023-05-03T21:51:34.348Z,76.61
2023-05-03T21:54:00.158Z,75.91
2023-05-03T21:56:29.168Z,76.07
2023-05-03T21:58:54.970Z,76.03
2023-05-03T22:01:21.217Z,76.36
2023-05-03T22:03:49.405Z,76.52
2023-05-03T22:06:15.262Z,75.95
2023-05-03T22:08:41.091Z,75.62
2023-05-03T22:11:06.973Z,75.48
2023-05-03T22:13:33.790Z,76.86
2023-05-03T22:16:07.481Z,76.20
2023-05-03T22:18:34.257Z,76.62
2023-05-03T22:21:03.933Z,76.71
2023-05-03T22:23:30.414Z,76.90
2023-05-03T22:25:56.754Z,76.57
2023-05-03T22:28:22.683Z,76.65
2023-05-03T22:30:51.309Z,76.93
2023-05-03T22:33:17.188Z,77.08
2023-05-03T22:35:43.147Z,76.93
2023-05-03T22:38:08.900Z,77.69
2023-05-03T22:40:34.787Z,78.24
2023-05-03T22:43:00.608Z,77.58
2023-05-03T22:45:26.452Z,78.00
2023-05-03T22:47:52.270Z,77.46
2023-05-03T22:50:18.117Z,77.84
2023-05-03T22:52:43.971Z,78.46
2023-05-03T22:55:09.837Z,78.26
2023-05-03T22:57:35.900Z,76.89
2023-05-03T23:00:02.294Z,76.53
2023-05-03T23:02:28.414Z,75.98
2023-05-03T23:04:54.354Z,76.10
2023-05-03T23:07:20.252Z,76.96
2023-05-03T23:09:47.721Z,76.24
2023-05-03T23:12:13.737Z,75.99
2023-05-03T23:14:42.800Z,75.67
2023-05-03T23:17:09.918Z,76.55
2023-05-03T23:19:36.293Z,75.37
2023-05-03T23:22:05.140Z,75.30
2023-05-03T23:24:30.914Z,75.99
2023-05-03T23:26:56.808Z,76.51
2023-05-03T23:29:23.193Z,75.58
2023-05-03T23:31:49.688Z,76.15
2023-05-03T23:34:16.101Z,75.22
2023-05-03T23:36:42.020Z,74.69
2023-05-03T23:39:08.122Z,74.27
2023-05-03T23:41:33.977Z,75.01
2023-05-03T23:43:59.952Z,76.25
2023-05-03T23:46:26.038Z,76.42
2023-05-03T23:48:51.972Z,76.10
2023-05-03T23:51:17.794Z,77.15
2023-05-03T23:53:43.610Z,77.74
2023-05-03T23:56:09.465Z,76.77
2023-05-03T23:58:35.515Z,76.77
